Frostburg, MD (21532)

12:38 PM EDT on August 27, 2016 (GMT -0400)
| | Change Station

Elev -9999 ft 0.00 °N, 0.00 °E | Updated

Partly Cloudy
Partly Cloudy
85 °F
Feels Like 86 °F
N
6
Wind Variable Wind from SE
Gusts mph

Today
High -- | Low -- °F
--% Chance of Precip.
Yesterday
High -- | Low -- °F
Precip. -- in
Pressure 30.22 in
Visibility 10.0 miles
Clouds Clear
Heat Index 86 °F
Dew Point 65 °F
Humidity 51%
Rainfall --
Snow Depth Not available.
6:39 AM 7:53 PM
Waning Crescent, 23% visible
METAR KCBE 271631Z AUTO 00000KT 10SM CLR 30/17 A3022 RMK AO1
Pressure 30.22 in
Visibility 10.0 miles
Clouds Clear
Heat Index 86 °F
Dew Point 65 °F
Humidity 51%
Rainfall --
Snow Depth Not available.
6:39 AM 7:53 PM
Waning Crescent, 23% visible
METAR KCBE 271631Z AUTO 00000KT 10SM CLR 30/17 A3022 RMK AO1

10-Day Weather Forecast

Almanac

Astronomy

Aug. 27, 2016 Rise Set
Actual Time
Civil Twilight
Nautical Twilight
Astronomical Twilight
Moon
Length of Visible Light
Length of Day
Tomorrow will be .
, % of the Moon is Illuminated

Today's Extremes

State Highs State Lows

Community

WunderPhotos

Upload Photos

1,935,375 photos uploaded!

WunderBlog® & News

Nearby

Air Quality

  Air Quality AQ Index Pollutant
Not available.

Snow Depth

Station Depth Elevation

Earthquake Activity

City Distance Mag. Time & Date
Minimum magnitude displayed is 2.5.

Coastal Water Temperatures

Place Temperature

Stations

Nearby Weather Stations

Station Location Temp. Windchill Dew Point Humidity Wind Precip. Elev Updated Type
                   

Watches & Warnings

There are currently no watches in effect.